sensor_id;sensor_type;location;lat;lon;timestamp;P1;durP1;ratioP1;P2;durP2;ratioP2
65086;SDS011;52094;51.234;-2.310;2022-09-03T00:00:13;7.57;;;6.55;;
65086;SDS011;52094;51.234;-2.310;2022-09-03T00:16:02;7.25;;;5.88;;
65086;SDS011;52094;51.234;-2.310;2022-09-03T00:20:02;8.98;;;6.95;;
65086;SDS011;52094;51.234;-2.310;2022-09-03T00:23:50;8.43;;;7.23;;
65086;SDS011;52094;51.234;-2.310;2022-09-03T00:27:36;9.63;;;6.72;;
65086;SDS011;52094;51.234;-2.310;2022-09-03T00:35:22;8.00;;;7.20;;
65086;SDS011;52094;51.234;-2.310;2022-09-03T00:39:18;8.13;;;6.20;;
65086;SDS011;52094;51.234;-2.310;2022-09-03T00:46:50;8.25;;;7.05;;
65086;SDS011;52094;51.234;-2.310;2022-09-03T00:54:50;7.75;;;6.35;;
65086;SDS011;52094;51.234;-2.310;2022-09-03T01:03:02;10.23;;;8.05;;
65086;SDS011;52094;51.234;-2.310;2022-09-03T01:15:18;7.32;;;5.80;;
65086;SDS011;52094;51.234;-2.310;2022-09-03T01:19:39;8.90;;;7.38;;
65086;SDS011;52094;51.234;-2.310;2022-09-03T01:32:11;9.65;;;8.30;;
65086;SDS011;52094;51.234;-2.310;2022-09-03T01:36:07;12.70;;;9.80;;
65086;SDS011;52094;51.234;-2.310;2022-09-03T01:40:39;12.02;;;8.63;;
65086;SDS011;52094;51.234;-2.310;2022-09-03T01:48:43;10.95;;;9.45;;
65086;SDS011;52094;51.234;-2.310;2022-09-03T02:00:42;12.13;;;10.57;;
65086;SDS011;52094;51.234;-2.310;2022-09-03T02:04:28;13.90;;;11.60;;
65086;SDS011;52094;51.234;-2.310;2022-09-03T02:08:12;11.85;;;9.80;;
65086;SDS011;52094;51.234;-2.310;2022-09-03T02:11:55;14.80;;;12.07;;
65086;SDS011;52094;51.234;-2.310;2022-09-03T02:15:44;15.43;;;12.57;;
65086;SDS011;52094;51.234;-2.310;2022-09-03T02:19:29;14.95;;;11.60;;
65086;SDS011;52094;51.234;-2.310;2022-09-03T02:23:11;17.98;;;12.00;;
65086;SDS011;52094;51.234;-2.310;2022-09-03T02:26:54;14.80;;;11.10;;
65086;SDS011;52094;51.234;-2.310;2022-09-03T02:30:37;21.05;;;11.38;;
65086;SDS011;52094;51.234;-2.310;2022-09-03T02:34:19;13.45;;;11.45;;
65086;SDS011;52094;51.234;-2.310;2022-09-03T02:42:13;13.57;;;11.50;;
65086;SDS011;52094;51.234;-2.310;2022-09-03T02:45:58;11.60;;;10.00;;
65086;SDS011;52094;51.234;-2.310;2022-09-03T02:49:43;12.40;;;10.35;;
65086;SDS011;52094;51.234;-2.310;2022-09-03T02:53:27;13.52;;;10.95;;
65086;SDS011;52094;51.234;-2.310;2022-09-03T02:57:10;11.30;;;9.75;;
65086;SDS011;52094;51.234;-2.310;2022-09-03T03:00:54;13.65;;;11.68;;
65086;SDS011;52094;51.234;-2.310;2022-09-03T03:04:36;16.23;;;13.23;;
65086;SDS011;52094;51.234;-2.310;2022-09-03T03:08:19;13.70;;;11.68;;
65086;SDS011;52094;51.234;-2.310;2022-09-03T03:12:04;15.68;;;13.00;;
65086;SDS011;52094;51.234;-2.310;2022-09-03T03:15:46;14.18;;;12.23;;
65086;SDS011;52094;51.234;-2.310;2022-09-03T03:19:29;12.07;;;10.07;;
65086;SDS011;52094;51.234;-2.310;2022-09-03T03:23:11;13.15;;;10.48;;
65086;SDS011;52094;51.234;-2.310;2022-09-03T03:26:56;12.32;;;10.85;;
65086;SDS011;52094;51.234;-2.310;2022-09-03T03:30:38;12.77;;;10.90;;
65086;SDS011;52094;51.234;-2.310;2022-09-03T03:34:23;12.38;;;10.32;;
65086;SDS011;52094;51.234;-2.310;2022-09-03T03:38:05;12.95;;;9.82;;
65086;SDS011;52094;51.234;-2.310;2022-09-03T03:41:47;11.27;;;9.35;;
65086;SDS011;52094;51.234;-2.310;2022-09-03T03:45:29;12.30;;;10.52;;
65086;SDS011;52094;51.234;-2.310;2022-09-03T03:49:11;12.70;;;10.30;;
65086;SDS011;52094;51.234;-2.310;2022-09-03T03:52:53;12.98;;;9.68;;
65086;SDS011;52094;51.234;-2.310;2022-09-03T03:56:36;14.30;;;10.73;;
65086;SDS011;52094;51.234;-2.310;2022-09-03T04:00:18;14.85;;;11.15;;
65086;SDS011;52094;51.234;-2.310;2022-09-03T04:04:00;11.63;;;8.57;;
65086;SDS011;52094;51.234;-2.310;2022-09-03T04:07:43;13.20;;;10.68;;
65086;SDS011;52094;51.234;-2.310;2022-09-03T04:11:25;14.80;;;11.23;;
65086;SDS011;52094;51.234;-2.310;2022-09-03T04:15:07;14.63;;;10.73;;
65086;SDS011;52094;51.234;-2.310;2022-09-03T04:18:50;15.32;;;11.95;;
65086;SDS011;52094;51.234;-2.310;2022-09-03T04:22:33;14.02;;;10.30;;
65086;SDS011;52094;51.234;-2.310;2022-09-03T04:26:16;12.60;;;9.68;;
65086;SDS011;52094;51.234;-2.310;2022-09-03T04:30:00;11.93;;;9.43;;
65086;SDS011;52094;51.234;-2.310;2022-09-03T04:33:44;12.82;;;9.10;;
65086;SDS011;52094;51.234;-2.310;2022-09-03T04:37:26;14.73;;;11.63;;
65086;SDS011;52094;51.234;-2.310;2022-09-03T04:41:10;16.13;;;11.07;;
65086;SDS011;52094;51.234;-2.310;2022-09-03T04:44:54;15.15;;;10.75;;
65086;SDS011;52094;51.234;-2.310;2022-09-03T04:48:36;13.77;;;11.07;;
65086;SDS011;52094;51.234;-2.310;2022-09-03T04:52:19;13.45;;;10.45;;
65086;SDS011;52094;51.234;-2.310;2022-09-03T04:56:02;12.13;;;9.55;;
65086;SDS011;52094;51.234;-2.310;2022-09-03T04:59:52;13.75;;;10.50;;
65086;SDS011;52094;51.234;-2.310;2022-09-03T05:03:34;10.85;;;8.15;;
65086;SDS011;52094;51.234;-2.310;2022-09-03T05:07:17;12.20;;;9.13;;
65086;SDS011;52094;51.234;-2.310;2022-09-03T05:11:03;11.55;;;8.77;;
65086;SDS011;52094;51.234;-2.310;2022-09-03T05:14:45;12.77;;;9.35;;
65086;SDS011;52094;51.234;-2.310;2022-09-03T05:18:28;12.43;;;9.30;;
65086;SDS011;52094;51.234;-2.310;2022-09-03T05:22:16;11.43;;;8.20;;
65086;SDS011;52094;51.234;-2.310;2022-09-03T05:26:02;13.07;;;10.43;;
65086;SDS011;52094;51.234;-2.310;2022-09-03T05:29:51;11.87;;;9.30;;
65086;SDS011;52094;51.234;-2.310;2022-09-03T05:33:34;13.57;;;9.82;;
65086;SDS011;52094;51.234;-2.310;2022-09-03T05:37:18;12.35;;;9.50;;
65086;SDS011;52094;51.234;-2.310;2022-09-03T05:41:00;14.82;;;10.68;;
65086;SDS011;52094;51.234;-2.310;2022-09-03T05:44:44;12.05;;;9.60;;
65086;SDS011;52094;51.234;-2.310;2022-09-03T05:48:31;11.35;;;8.90;;
65086;SDS011;52094;51.234;-2.310;2022-09-03T05:52:14;13.20;;;10.63;;
65086;SDS011;52094;51.234;-2.310;2022-09-03T05:55:57;13.52;;;10.07;;
65086;SDS011;52094;51.234;-2.310;2022-09-03T05:59:41;13.18;;;9.30;;
65086;SDS011;52094;51.234;-2.310;2022-09-03T06:03:23;13.23;;;9.65;;
65086;SDS011;52094;51.234;-2.310;2022-09-03T06:07:06;10.45;;;8.32;;
65086;SDS011;52094;51.234;-2.310;2022-09-03T06:10:49;10.10;;;8.18;;
65086;SDS011;52094;51.234;-2.310;2022-09-03T06:14:31;11.68;;;8.95;;
65086;SDS011;52094;51.234;-2.310;2022-09-03T06:18:13;10.70;;;8.48;;
65086;SDS011;52094;51.234;-2.310;2022-09-03T06:21:55;9.68;;;7.65;;
65086;SDS011;52094;51.234;-2.310;2022-09-03T06:25:37;9.27;;;7.38;;
65086;SDS011;52094;51.234;-2.310;2022-09-03T06:29:22;12.43;;;9.93;;
65086;SDS011;52094;51.234;-2.310;2022-09-03T06:33:04;12.43;;;9.93;;
65086;SDS011;52094;51.234;-2.310;2022-09-03T06:36:46;13.70;;;10.95;;
65086;SDS011;52094;51.234;-2.310;2022-09-03T06:40:28;13.80;;;11.20;;
65086;SDS011;52094;51.234;-2.310;2022-09-03T06:44:12;14.80;;;11.15;;
65086;SDS011;52094;51.234;-2.310;2022-09-03T06:47:54;15.90;;;11.55;;
65086;SDS011;52094;51.234;-2.310;2022-09-03T06:51:36;14.38;;;10.88;;
65086;SDS011;52094;51.234;-2.310;2022-09-03T06:55:20;15.15;;;11.30;;
65086;SDS011;52094;51.234;-2.310;2022-09-03T06:59:04;13.05;;;10.70;;
65086;SDS011;52094;51.234;-2.310;2022-09-03T07:02:55;13.85;;;11.13;;
65086;SDS011;52094;51.234;-2.310;2022-09-03T07:06:39;15.68;;;11.55;;
65086;SDS011;52094;51.234;-2.310;2022-09-03T07:10:23;16.02;;;11.98;;
65086;SDS011;52094;51.234;-2.310;2022-09-03T07:14:06;14.40;;;11.85;;
65086;SDS011;52094;51.234;-2.310;2022-09-03T07:17:48;13.00;;;10.93;;
65086;SDS011;52094;51.234;-2.310;2022-09-03T07:21:31;15.73;;;12.32;;
65086;SDS011;52094;51.234;-2.310;2022-09-03T07:25:14;16.25;;;12.80;;
65086;SDS011;52094;51.234;-2.310;2022-09-03T07:28:57;17.20;;;12.75;;
65086;SDS011;52094;51.234;-2.310;2022-09-03T07:32:41;16.58;;;12.88;;
65086;SDS011;52094;51.234;-2.310;2022-09-03T07:36:24;14.45;;;12.07;;
65086;SDS011;52094;51.234;-2.310;2022-09-03T07:40:08;14.57;;;12.07;;
65086;SDS011;52094;51.234;-2.310;2022-09-03T07:43:51;15.20;;;12.18;;
65086;SDS011;52094;51.234;-2.310;2022-09-03T07:52:48;16.42;;;12.45;;
65086;SDS011;52094;51.234;-2.310;2022-09-03T07:56:36;14.93;;;13.00;;
65086;SDS011;52094;51.234;-2.310;2022-09-03T08:00:19;13.43;;;11.70;;
65086;SDS011;52094;51.234;-2.310;2022-09-03T08:04:16;13.88;;;12.30;;
65086;SDS011;52094;51.234;-2.310;2022-09-03T08:07:58;14.85;;;12.40;;
65086;SDS011;52094;51.234;-2.310;2022-09-03T08:11:43;13.95;;;12.45;;
65086;SDS011;52094;51.234;-2.310;2022-09-03T08:15:25;13.30;;;11.82;;
65086;SDS011;52094;51.234;-2.310;2022-09-03T08:19:07;13.20;;;10.70;;
65086;SDS011;52094;51.234;-2.310;2022-09-03T08:23:01;13.43;;;10.40;;
65086;SDS011;52094;51.234;-2.310;2022-09-03T08:26:44;11.98;;;10.45;;
65086;SDS011;52094;51.234;-2.310;2022-09-03T08:30:32;12.38;;;11.07;;
65086;SDS011;52094;51.234;-2.310;2022-09-03T08:34:15;13.50;;;11.60;;
65086;SDS011;52094;51.234;-2.310;2022-09-03T08:37:58;14.95;;;11.23;;
65086;SDS011;52094;51.234;-2.310;2022-09-03T08:45:31;13.10;;;11.57;;
65086;SDS011;52094;51.234;-2.310;2022-09-03T08:49:25;13.85;;;10.88;;
65086;SDS011;52094;51.234;-2.310;2022-09-03T08:53:29;12.25;;;10.75;;
65086;SDS011;52094;51.234;-2.310;2022-09-03T08:57:22;11.75;;;10.00;;
65086;SDS011;52094;51.234;-2.310;2022-09-03T09:05:16;11.98;;;10.20;;
65086;SDS011;52094;51.234;-2.310;2022-09-03T09:20:59;11.68;;;10.48;;
65086;SDS011;52094;51.234;-2.310;2022-09-03T09:24:51;11.63;;;10.43;;
65086;SDS011;52094;51.234;-2.310;2022-09-03T09:28:36;14.38;;;11.82;;
65086;SDS011;52094;51.234;-2.310;2022-09-03T09:32:19;13.93;;;12.07;;
65086;SDS011;52094;51.234;-2.310;2022-09-03T09:36:02;12.50;;;11.30;;
65086;SDS011;52094;51.234;-2.310;2022-09-03T09:39:56;13.35;;;11.07;;
65086;SDS011;52094;51.234;-2.310;2022-09-03T09:43:40;14.25;;;12.25;;
65086;SDS011;52094;51.234;-2.310;2022-09-03T09:51:36;14.80;;;12.55;;
65086;SDS011;52094;51.234;-2.310;2022-09-03T09:55:18;13.88;;;12.43;;
65086;SDS011;52094;51.234;-2.310;2022-09-03T09:59:01;15.13;;;12.27;;
65086;SDS011;52094;51.234;-2.310;2022-09-03T10:02:49;15.27;;;11.93;;
65086;SDS011;52094;51.234;-2.310;2022-09-03T10:06:36;14.05;;;11.73;;
65086;SDS011;52094;51.234;-2.310;2022-09-03T10:10:38;14.00;;;11.90;;
65086;SDS011;52094;51.234;-2.310;2022-09-03T10:14:26;14.60;;;11.82;;
65086;SDS011;52094;51.234;-2.310;2022-09-03T10:22:11;13.20;;;11.18;;
65086;SDS011;52094;51.234;-2.310;2022-09-03T10:29:47;12.45;;;11.13;;
65086;SDS011;52094;51.234;-2.310;2022-09-03T10:33:38;14.15;;;12.30;;
65086;SDS011;52094;51.234;-2.310;2022-09-03T10:37:42;14.95;;;12.35;;
65086;SDS011;52094;51.234;-2.310;2022-09-03T10:41:28;13.00;;;11.13;;
65086;SDS011;52094;51.234;-2.310;2022-09-03T10:45:56;12.05;;;9.82;;
65086;SDS011;52094;51.234;-2.310;2022-09-03T10:50:02;12.10;;;10.25;;
65086;SDS011;52094;51.234;-2.310;2022-09-03T10:57:53;10.15;;;8.55;;
65086;SDS011;52094;51.234;-2.310;2022-09-03T11:02:14;11.75;;;9.95;;
65086;SDS011;52094;51.234;-2.310;2022-09-03T11:06:22;11.35;;;9.98;;
65086;SDS011;52094;51.234;-2.310;2022-09-03T11:14:14;11.48;;;8.05;;
65086;SDS011;52094;51.234;-2.310;2022-09-03T11:18:17;9.80;;;8.73;;
65086;SDS011;52094;51.234;-2.310;2022-09-03T11:22:33;9.68;;;7.75;;
65086;SDS011;52094;51.234;-2.310;2022-09-03T11:26:17;10.05;;;8.57;;
65086;SDS011;52094;51.234;-2.310;2022-09-03T11:30:06;13.02;;;8.55;;
65086;SDS011;52094;51.234;-2.310;2022-09-03T11:33:50;10.15;;;8.00;;
65086;SDS011;52094;51.234;-2.310;2022-09-03T11:37:48;10.13;;;8.25;;
65086;SDS011;52094;51.234;-2.310;2022-09-03T11:41:39;9.17;;;7.13;;
65086;SDS011;52094;51.234;-2.310;2022-09-03T11:49:12;8.30;;;6.10;;
65086;SDS011;52094;51.234;-2.310;2022-09-03T11:53:21;6.93;;;5.15;;
65086;SDS011;52094;51.234;-2.310;2022-09-03T11:57:14;6.20;;;4.65;;
65086;SDS011;52094;51.234;-2.310;2022-09-03T12:01:09;5.82;;;4.07;;
65086;SDS011;52094;51.234;-2.310;2022-09-03T12:05:10;4.88;;;3.42;;
65086;SDS011;52094;51.234;-2.310;2022-09-03T12:21:05;7.18;;;3.60;;
65086;SDS011;52094;51.234;-2.310;2022-09-03T12:24:49;6.45;;;4.03;;
65086;SDS011;52094;51.234;-2.310;2022-09-03T12:28:36;7.30;;;4.35;;
65086;SDS011;52094;51.234;-2.310;2022-09-03T12:32:28;6.05;;;4.43;;
65086;SDS011;52094;51.234;-2.310;2022-09-03T12:36:17;7.65;;;5.28;;
65086;SDS011;52094;51.234;-2.310;2022-09-03T12:40:00;7.30;;;5.18;;
65086;SDS011;52094;51.234;-2.310;2022-09-03T12:43:52;8.23;;;5.90;;
65086;SDS011;52094;51.234;-2.310;2022-09-03T12:47:39;7.55;;;5.70;;
65086;SDS011;52094;51.234;-2.310;2022-09-03T12:51:23;7.75;;;5.78;;
65086;SDS011;52094;51.234;-2.310;2022-09-03T12:55:35;7.78;;;5.30;;
65086;SDS011;52094;51.234;-2.310;2022-09-03T12:59:23;7.43;;;4.85;;
65086;SDS011;52094;51.234;-2.310;2022-09-03T13:03:17;7.40;;;5.35;;
65086;SDS011;52094;51.234;-2.310;2022-09-03T13:07:13;7.57;;;5.10;;
65086;SDS011;52094;51.234;-2.310;2022-09-03T13:11:25;8.45;;;5.63;;
65086;SDS011;52094;51.234;-2.310;2022-09-03T13:15:10;6.25;;;4.20;;
65086;SDS011;52094;51.234;-2.310;2022-09-03T13:19:06;7.25;;;4.28;;
65086;SDS011;52094;51.234;-2.310;2022-09-03T13:27:13;8.50;;;5.10;;
65086;SDS011;52094;51.234;-2.310;2022-09-03T13:35:33;7.22;;;4.70;;
65086;SDS011;52094;51.234;-2.310;2022-09-03T13:47:14;8.55;;;4.88;;
65086;SDS011;52094;51.234;-2.310;2022-09-03T13:51:12;6.78;;;4.07;;
65086;SDS011;52094;51.234;-2.310;2022-09-03T13:55:10;6.43;;;3.50;;
65086;SDS011;52094;51.234;-2.310;2022-09-03T14:02:57;7.22;;;2.85;;
65086;SDS011;52094;51.234;-2.310;2022-09-03T14:07:05;5.18;;;2.70;;
65086;SDS011;52094;51.234;-2.310;2022-09-03T14:14:57;4.25;;;2.63;;
65086;SDS011;52094;51.234;-2.310;2022-09-03T14:22:42;5.63;;;2.83;;
65086;SDS011;52094;51.234;-2.310;2022-09-03T14:26:28;5.35;;;3.00;;
65086;SDS011;52094;51.234;-2.310;2022-09-03T14:46:18;6.75;;;3.22;;
65086;SDS011;52094;51.234;-2.310;2022-09-03T14:54:12;6.15;;;3.42;;
65086;SDS011;52094;51.234;-2.310;2022-09-03T15:02:35;6.45;;;3.13;;
65086;SDS011;52094;51.234;-2.310;2022-09-03T15:10:44;7.15;;;2.45;;
65086;SDS011;52094;51.234;-2.310;2022-09-03T15:14:52;5.63;;;2.13;;
65086;SDS011;52094;51.234;-2.310;2022-09-03T15:38:57;3.17;;;1.15;;
65086;SDS011;52094;51.234;-2.310;2022-09-03T15:42:42;2.92;;;1.40;;
65086;SDS011;52094;51.234;-2.310;2022-09-03T15:46:48;3.28;;;1.20;;
65086;SDS011;52094;51.234;-2.310;2022-09-03T15:50:36;4.45;;;1.35;;
65086;SDS011;52094;51.234;-2.310;2022-09-03T15:55:09;2.72;;;1.40;;
65086;SDS011;52094;51.234;-2.310;2022-09-03T15:59:24;3.50;;;1.40;;
65086;SDS011;52094;51.234;-2.310;2022-09-03T16:03:08;3.17;;;1.25;;
65086;SDS011;52094;51.234;-2.310;2022-09-03T16:07:08;3.08;;;1.38;;
65086;SDS011;52094;51.234;-2.310;2022-09-03T16:19:12;5.70;;;1.98;;
65086;SDS011;52094;51.234;-2.310;2022-09-03T16:23:06;3.95;;;1.48;;
65086;SDS011;52094;51.234;-2.310;2022-09-03T16:27:14;4.03;;;1.52;;
65086;SDS011;52094;51.234;-2.310;2022-09-03T16:31:01;4.68;;;1.60;;
65086;SDS011;52094;51.234;-2.310;2022-09-03T16:35:00;4.45;;;1.40;;
65086;SDS011;52094;51.234;-2.310;2022-09-03T16:39:01;4.43;;;1.80;;
65086;SDS011;52094;51.234;-2.310;2022-09-03T16:51:34;9.10;;;1.55;;
65086;SDS011;52094;51.234;-2.310;2022-09-03T16:55:24;4.53;;;1.35;;
65086;SDS011;52094;51.234;-2.310;2022-09-03T17:11:19;3.65;;;1.38;;
65086;SDS011;52094;51.234;-2.310;2022-09-03T17:32:29;4.50;;;1.48;;
65086;SDS011;52094;51.234;-2.310;2022-09-03T17:36:23;4.65;;;1.52;;
65086;SDS011;52094;51.234;-2.310;2022-09-03T17:44:08;5.10;;;1.77;;
65086;SDS011;52094;51.234;-2.310;2022-09-03T17:52:17;3.50;;;1.70;;
65086;SDS011;52094;51.234;-2.310;2022-09-03T17:56:01;4.25;;;2.17;;
65086;SDS011;52094;51.234;-2.310;2022-09-03T18:00:08;3.85;;;2.03;;
65086;SDS011;52094;51.234;-2.310;2022-09-03T18:03:54;4.68;;;2.35;;
65086;SDS011;52094;51.234;-2.310;2022-09-03T18:07:51;6.85;;;2.55;;
65086;SDS011;52094;51.234;-2.310;2022-09-03T18:20:14;3.60;;;2.08;;
65086;SDS011;52094;51.234;-2.310;2022-09-03T18:28:46;4.57;;;2.50;;
65086;SDS011;52094;51.234;-2.310;2022-09-03T18:32:51;6.40;;;2.65;;
65086;SDS011;52094;51.234;-2.310;2022-09-03T18:36:52;4.35;;;1.63;;
65086;SDS011;52094;51.234;-2.310;2022-09-03T18:50:17;4.65;;;1.70;;
65086;SDS011;52094;51.234;-2.310;2022-09-03T18:59:10;4.75;;;2.38;;
65086;SDS011;52094;51.234;-2.310;2022-09-03T19:07:36;5.60;;;2.22;;
65086;SDS011;52094;51.234;-2.310;2022-09-03T19:11:57;5.57;;;2.10;;
65086;SDS011;52094;51.234;-2.310;2022-09-03T19:20:27;4.78;;;2.55;;
65086;SDS011;52094;51.234;-2.310;2022-09-03T19:24:30;5.95;;;2.67;;
65086;SDS011;52094;51.234;-2.310;2022-09-03T19:28:30;5.35;;;2.40;;
65086;SDS011;52094;51.234;-2.310;2022-09-03T19:32:58;6.22;;;2.80;;
65086;SDS011;52094;51.234;-2.310;2022-09-03T19:41:31;6.60;;;2.53;;
65086;SDS011;52094;51.234;-2.310;2022-09-03T19:45:53;4.25;;;2.40;;
65086;SDS011;52094;51.234;-2.310;2022-09-03T19:54:36;6.97;;;2.85;;
65086;SDS011;52094;51.234;-2.310;2022-09-03T19:58:40;7.40;;;2.95;;
65086;SDS011;52094;51.234;-2.310;2022-09-03T20:02:48;5.55;;;2.70;;
65086;SDS011;52094;51.234;-2.310;2022-09-03T20:06:49;5.70;;;2.35;;
65086;SDS011;52094;51.234;-2.310;2022-09-03T20:10:50;4.93;;;2.65;;
65086;SDS011;52094;51.234;-2.310;2022-09-03T20:14:37;7.22;;;2.90;;
65086;SDS011;52094;51.234;-2.310;2022-09-03T20:22:52;5.50;;;2.40;;
65086;SDS011;52094;51.234;-2.310;2022-09-03T20:26:54;5.43;;;3.22;;
65086;SDS011;52094;51.234;-2.310;2022-09-03T20:50:56;6.80;;;2.88;;
65086;SDS011;52094;51.234;-2.310;2022-09-03T20:59:02;7.05;;;3.33;;
65086;SDS011;52094;51.234;-2.310;2022-09-03T21:07:19;4.35;;;2.20;;
65086;SDS011;52094;51.234;-2.310;2022-09-03T21:11:25;4.78;;;2.78;;
65086;SDS011;52094;51.234;-2.310;2022-09-03T21:15:28;7.28;;;3.17;;
65086;SDS011;52094;51.234;-2.310;2022-09-03T21:23:24;6.82;;;2.95;;
65086;SDS011;52094;51.234;-2.310;2022-09-03T21:27:18;5.50;;;2.80;;
65086;SDS011;52094;51.234;-2.310;2022-09-03T21:31:21;6.05;;;2.97;;
65086;SDS011;52094;51.234;-2.310;2022-09-03T21:35:27;5.68;;;3.10;;
65086;SDS011;52094;51.234;-2.310;2022-09-03T21:39:26;5.93;;;2.85;;
65086;SDS011;52094;51.234;-2.310;2022-09-03T21:43:16;5.82;;;3.00;;
65086;SDS011;52094;51.234;-2.310;2022-09-03T21:47:05;5.93;;;2.95;;
65086;SDS011;52094;51.234;-2.310;2022-09-03T21:50:55;6.68;;;3.40;;
65086;SDS011;52094;51.234;-2.310;2022-09-03T21:54:41;7.20;;;2.60;;
65086;SDS011;52094;51.234;-2.310;2022-09-03T22:02:24;5.63;;;3.08;;
65086;SDS011;52094;51.234;-2.310;2022-09-03T22:06:18;4.40;;;2.30;;
65086;SDS011;52094;51.234;-2.310;2022-09-03T22:10:23;6.13;;;3.17;;
65086;SDS011;52094;51.234;-2.310;2022-09-03T22:14:14;6.10;;;3.67;;
65086;SDS011;52094;51.234;-2.310;2022-09-03T22:18:00;5.78;;;3.50;;
65086;SDS011;52094;51.234;-2.310;2022-09-03T22:21:53;6.20;;;3.60;;
65086;SDS011;52094;51.234;-2.310;2022-09-03T22:30:09;6.10;;;3.80;;
65086;SDS011;52094;51.234;-2.310;2022-09-03T22:46:26;5.50;;;4.00;;
65086;SDS011;52094;51.234;-2.310;2022-09-03T22:50:34;6.32;;;4.18;;
65086;SDS011;52094;51.234;-2.310;2022-09-03T22:58:19;7.60;;;4.55;;
65086;SDS011;52094;51.234;-2.310;2022-09-03T23:02:14;6.35;;;4.28;;
65086;SDS011;52094;51.234;-2.310;2022-09-03T23:06:02;9.07;;;5.28;;
65086;SDS011;52094;51.234;-2.310;2022-09-03T23:09:51;8.77;;;5.15;;
65086;SDS011;52094;51.234;-2.310;2022-09-03T23:13:46;10.82;;;5.63;;
65086;SDS011;52094;51.234;-2.310;2022-09-03T23:17:32;8.00;;;5.05;;
65086;SDS011;52094;51.234;-2.310;2022-09-03T23:21:20;7.97;;;5.30;;
65086;SDS011;52094;51.234;-2.310;2022-09-03T23:25:24;8.57;;;5.80;;
65086;SDS011;52094;51.234;-2.310;2022-09-03T23:29:33;9.73;;;6.18;;
65086;SDS011;52094;51.234;-2.310;2022-09-03T23:33:19;8.23;;;5.68;;
65086;SDS011;52094;51.234;-2.310;2022-09-03T23:41:12;8.93;;;5.80;;
65086;SDS011;52094;51.234;-2.310;2022-09-03T23:49:38;10.60;;;6.37;;
